Latest Weather Observations for Stawell

IDV60801

Issued at 6:05 pm EST Monday 28 July 2014 (issued every 30 minutes, with the page automatically refreshed every 10 minutes)

About weather observations | Map of weather stations | Latest weather observations for VIC | Other Formats
Station Details ID: 079105 Name: STAWELL AERODROME Lat: -37.07 Lon: 142.74 Height: 235.36 m
Data from the previous 72 hours. | See also: Recent months at Stawell
Date/Time
EST
Temp
°C
App
Temp
°C
Dew
Point
Rel
Hum
%
Delta-T
°C
Wind Press
QNH
hPa
Press
MSL
hPa
Rain
since 9 am
mm
Dir
 
Spd
km/h
Gust
km/h
Spd
kts
Gust
kts
28/06:00pm 12.6 9.9 7.3 70 2.6 NNW 11 17 6 9 1012.3 1013.6 0.0
28/05:30pm 13.4 10.7 7.2 66 3.1 NNW 11 17 6 9 1012.0 - 0.0
28/05:00pm 14.2 10.3 7.3 63 3.4 NW 17 28 9 15 1012.0 - 0.0
28/04:30pm 14.8 10.4 7.4 61 3.7 NW 20 28 11 15 1012.1 - 0.0
28/04:00pm 15.0 9.8 7.1 59 3.9 NW 24 33 13 18 1012.2 - 0.0
28/03:30pm 15.2 10.9 8.0 62 3.7 NW 20 30 11 16 1012.2 - 0.0
28/03:00pm 15.0 8.8 7.8 62 3.6 NW 30 43 16 23 1012.3 1013.6 0.0
28/02:30pm 14.5 10.1 8.9 69 2.9 NW 22 35 12 19 1012.2 - 0.0
28/02:00pm 13.5 9.4 8.6 72 2.5 WNW 20 28 11 15 1012.6 - 0.0
28/01:30pm 13.5 8.1 9.4 76 2.1 NW 28 39 15 21 1013.1 - 0.0
28/01:00pm 13.4 9.7 10.0 80 1.8 NNW 20 33 11 18 1013.5 - 0.0
28/12:30pm 12.5 8.8 9.3 81 1.6 NNW 19 28 10 15 1014.1 - 0.0
28/12:00pm 10.7 7.4 7.9 83 1.4 N 15 20 8 11 1014.7 1015.9 0.0
28/11:30am 9.6 6.4 6.7 82 1.4 NNW 13 19 7 10 1015.2 - 0.0
28/11:00am 8.9 5.9 6.0 82 1.3 NNW 11 17 6 9 1015.5 - 0.0
28/10:30am 8.5 5.0 5.6 82 1.3 NNW 13 19 7 10 1015.6 - 0.0
28/10:00am 8.0 4.4 4.9 81 1.4 NNW 13 19 7 10 1015.6 - 0.0
28/09:30am 7.9 3.8 4.5 79 1.5 N 15 20 8 11 1015.5 - 0.0
28/09:00am 7.5 4.5 4.3 80 1.4 N 9 15 5 8 1015.4 1016.7 0.0
28/08:30am 6.5 3.9 4.0 84 1.1 N 7 13 4 7 1015.4 - 0.0
28/08:00am 5.5 2.8 3.8 89 0.7 NNE 7 11 4 6 1015.4 - 0.0
28/07:30am 4.6 1.8 3.1 90 0.6 NNE 7 48 4 26 1015.4 - 0.0
28/07:00am 5.0 2.4 3.2 88 0.8 NNE 6 9 3 5 1015.4 - 0.0
28/06:30am 5.3 2.1 3.3 87 0.8 NNE 9 13 5 7 1015.2 - 0.0
28/06:00am 5.7 1.8 3.4 85 1.0 N 13 19 7 10 1015.3 1016.6 0.0
28/05:30am 6.2 2.0 3.7 84 1.1 N 15 19 8 10 1015.4 - 0.0
28/05:00am 6.2 3.2 3.9 85 1.0 N 9 11 5 6 1015.7 - 0.0
28/04:30am 6.4 3.4 3.9 84 1.1 N 9 13 5 7 1015.8 - 0.0
28/04:00am 6.6 3.6 4.1 84 1.1 N 9 13 5 7 1015.9 - 0.0
28/03:30am 6.7 4.1 4.2 84 1.1 N 7 13 4 7 1016.1 - 0.0
28/03:00am 7.0 4.4 4.3 83 1.2 N 7 9 4 5 1016.4 1017.7 0.0
28/02:30am 7.0 4.4 4.1 82 1.3 NNW 7 9 4 5 1016.6 - 0.0
28/02:00am 7.7 4.7 4.3 79 1.5 N 9 15 5 8 1016.9 - 0.0
28/01:30am 7.9 4.2 4.7 80 1.4 N 13 19 7 10 1017.0 - 0.0
28/01:00am 7.7 4.5 5.0 83 1.2 N 11 15 6 8 1017.3 - 0.0
28/12:30am 7.6 5.2 5.4 86 1.0 N 7 9 4 5 1017.7 - 0.0
28/12:00am 7.1 4.7 5.1 87 0.9 NW 7 9 4 5 1018.1 1019.3 0.0
 
Date/Time
EST
Temp
°C
App
Temp
°C
Dew
Point
Rel
Hum
%
Delta-T
°C
Wind Press
QNH
hPa
Press
MSL
hPa
Rain
since 9 am
mm
Dir
 
Spd
km/h
Gust
km/h
Spd
kts
Gust
kts
27/11:30pm 8.1 5.4 5.6 84 1.1 NNW 9 11 5 6 1018.1 - 0.0
27/11:00pm 8.6 5.2 5.7 82 1.3 N 13 17 7 9 1018.3 - 0.0
27/10:30pm 8.7 5.7 5.8 82 1.3 N 11 15 6 8 1018.5 - 0.0
27/10:00pm 9.1 6.1 6.0 81 1.4 N 11 15 6 8 1018.9 - 0.0
27/09:30pm 9.4 6.4 6.1 80 1.5 N 11 17 6 9 1019.1 - 0.0
27/09:00pm 9.7 6.4 6.4 80 1.5 N 13 17 7 9 1019.0 1020.3 0.0
27/08:30pm 9.9 7.0 6.6 80 1.6 N 11 20 6 11 1019.1 - 0.0
27/08:00pm 10.2 7.4 6.9 80 1.6 N 11 15 6 8 1019.4 - 0.0
27/07:30pm 10.5 7.7 7.0 79 1.7 N 11 17 6 9 1019.5 - 0.0
27/07:00pm 11.0 7.9 7.3 78 1.8 NNW 13 19 7 10 1019.4 - 0.0
27/06:30pm 11.6 8.2 7.5 76 2.0 NNW 15 20 8 11 1019.3 - 0.0
27/06:00pm 12.0 9.0 7.7 75 2.1 NNW 13 20 7 11 1019.1 1020.4 0.0
27/05:30pm 12.4 9.5 8.1 75 2.1 N 13 22 7 12 1018.6 - 0.0
27/05:00pm 13.0 9.7 7.9 71 2.5 NNW 15 20 8 11 1018.6 - 0.0
27/04:30pm 13.4 8.7 7.6 68 2.9 NNW 22 37 12 20 1018.7 - 0.0
27/04:00pm 13.5 9.5 8.1 70 2.7 NNW 19 28 10 15 1019.1 - 0.0
27/03:30pm 13.6 10.1 8.9 73 2.4 NW 17 24 9 13 1019.7 - 0.0
27/03:00pm 13.5 9.4 8.6 72 2.5 NW 20 30 11 16 1019.4 1020.7 0.0
27/02:30pm 13.5 9.4 8.6 72 2.5 NW 20 32 11 17 1019.5 - 0.0
27/02:00pm 13.7 9.4 9.2 74 2.3 NW 22 32 12 17 1019.6 - 0.0
27/01:30pm 13.0 8.9 8.7 75 2.2 NNW 20 33 11 18 1019.8 - 0.0
27/01:00pm 12.6 8.8 9.1 79 1.8 NNW 19 24 10 13 1020.5 - 0.0
27/12:30pm 11.2 8.8 10.1 93 0.6 NNW 13 19 7 10 1021.1 - 0.0
27/12:00pm 9.3 6.2 8.8 97 0.2 NNW 15 22 8 12 1022.3 1023.7 0.0
27/11:30am 8.2 4.5 8.1 99 0.0 NNW 17 24 9 13 1022.8 - 0.0
27/11:00am 7.3 4.2 7.2 99 0.0 N 13 19 7 10 1023.2 - 0.0
27/10:30am 6.8 3.6 6.7 99 0.0 N 13 20 7 11 1023.6 - 0.0
27/10:00am 6.7 2.7 6.6 99 0.0 N 17 22 9 12 1023.6 - 0.0
27/09:30am 6.2 4.0 6.1 99 0.0 N 7 15 4 8 1023.9 - 0.0
27/09:00am 5.8 3.5 5.7 99 0.0 NNE 7 9 4 5 1023.9 1025.2 0.2
27/08:30am 5.7 3.0 5.6 99 0.0 N 9 13 5 7 1023.9 - 0.2
27/08:00am 5.2 3.3 5.1 99 0.0 NE 4 6 2 3 1024.1 - 0.2
27/07:30am 5.0 2.5 4.9 99 0.0 NE 7 11 4 6 1023.9 - 0.2
27/07:00am 5.3 2.9 5.2 99 0.0 E 7 9 4 5 1023.7 - 0.2
27/06:30am 5.2 2.8 5.1 99 0.0 ENE 7 9 4 5 1023.8 - 0.2
27/06:00am 5.0 2.5 4.9 99 0.0 E 7 9 4 5 1023.7 1025.0 0.2
27/05:30am 4.9 2.4 4.8 99 0.0 E 7 7 4 4 1023.5 - 0.2
27/05:00am 4.7 2.2 4.6 99 0.0 E 7 9 4 5 1023.7 - 0.2
27/04:30am 4.7 2.2 4.6 99 0.0 E 7 11 4 6 1023.7 - 0.2
27/04:00am 4.1 1.6 4.0 99 0.0 ENE 6 9 3 5 1024.0 - 0.2
27/03:30am 4.7 2.4 4.6 99 0.0 ENE 6 7 3 4 1024.0 - 0.2
27/03:00am 4.4 1.8 4.3 99 0.0 E 7 9 4 5 1024.1 1025.4 0.2
27/02:30am 5.1 2.8 5.0 99 0.0 E 6 9 3 5 1024.2 - 0.2
27/02:00am 4.5 1.9 4.4 99 0.0 E 7 9 4 5 1024.3 - 0.0
27/01:30am 5.3 2.9 5.2 99 0.0 E 7 9 4 5 1024.5 - 0.0
27/01:00am 5.9 3.8 5.8 99 0.0 E 6 9 3 5 1024.4 - 0.0
27/12:30am 6.4 3.8 6.3 99 0.0 SE 9 13 5 7 1024.8 - 0.0
27/12:00am 4.6 1.7 4.5 99 0.0 E 9 11 5 6 1025.0 1026.3 0.0
 
Date/Time
EST
Temp
°C
App
Temp
°C
Dew
Point
Rel
Hum
%
Delta-T
°C
Wind Press
QNH
hPa
Press
MSL
hPa
Rain
since 9 am
mm
Dir
 
Spd
km/h
Gust
km/h
Spd
kts
Gust
kts
26/11:30pm 4.3 1.7 4.2 99 0.0 E 7 9 4 5 1025.2 - 0.0
26/11:00pm 4.2 1.8 4.1 99 0.0 ESE 6 7 3 4 1025.3 - 0.0
26/10:30pm 4.3 1.7 4.2 99 0.0 E 7 9 4 5 1025.3 - 0.0
26/10:00pm 4.6 2.2 4.5 99 0.0 E 6 7 3 4 1025.4 - 0.0
26/09:30pm 5.2 2.8 5.1 99 0.0 E 7 9 4 5 1025.3 - 0.0
26/09:00pm 5.0 2.5 4.9 99 0.0 E 7 9 4 5 1025.2 1026.5 0.0
26/08:30pm 5.9 4.2 5.8 99 0.0 E 4 6 2 3 1025.1 - 0.0
26/08:00pm 6.5 4.5 6.4 99 0.0 ESE 6 7 3 4 1024.9 - 0.0
26/07:30pm 6.8 6.0 6.5 98 0.1 CALM 0 0 0 0 1024.7 - 0.0
26/07:00pm 7.5 5.7 7.1 97 0.2 ESE 6 7 3 4 1024.7 - 0.0
26/06:30pm 8.4 7.8 7.6 95 0.4 CALM 0 0 0 0 1024.5 - 0.0
26/06:00pm 9.2 8.7 7.8 91 0.7 CALM 0 0 0 0 1024.2 1025.5 0.0
26/05:30pm 10.5 9.4 8.3 86 1.1 WNW 4 6 2 3 1023.9 - 0.0
26/05:00pm 12.3 12.0 8.8 79 1.8 CALM 0 0 0 0 1023.8 - 0.0
26/04:30pm 12.4 11.3 8.5 77 2.0 W 4 7 2 4 1023.7 - 0.0
26/04:00pm 13.1 11.5 8.0 71 2.5 WSW 6 9 3 5 1023.5 - 0.0
26/03:30pm 12.8 10.7 8.1 73 2.3 SW 9 15 5 8 1023.6 - 0.0
26/03:00pm 12.4 10.2 7.9 74 2.2 WSW 9 15 5 8 1023.4 1024.7 0.0
26/02:30pm 12.3 9.8 8.0 75 2.1 WSW 11 20 6 11 1023.2 - 0.0
26/02:00pm 12.1 9.8 7.6 74 2.2 WSW 9 13 5 7 1023.1 - 0.0
26/01:30pm 12.2 10.2 7.1 71 2.5 W 7 13 4 7 1023.2 - 0.0
26/01:00pm 12.4 9.9 6.5 67 2.8 WSW 9 17 5 9 1023.4 - 0.0
26/12:30pm 12.2 9.3 6.7 69 2.7 WSW 11 15 6 8 1023.7 - 0.0
26/12:00pm 12.1 9.3 7.0 71 2.5 W 11 17 6 9 1023.8 1025.1 0.0
26/11:30am 12.3 10.0 7.4 72 2.4 SW 9 13 5 7 1023.8 - 0.0
26/11:00am 12.2 10.4 8.1 76 2.0 SW 7 9 4 5 1023.8 - 0.0
26/10:30am 12.5 11.8 8.6 77 2.0 NNE 2 9 1 5 1024.0 - 0.0
26/10:00am 11.3 10.1 9.6 89 0.9 N 6 7 3 4 1023.7 - 0.0
26/09:30am 9.5 8.1 9.4 99 0.1 NNW 7 9 4 5 1023.6 - 0.0
26/09:00am 9.3 7.8 9.2 99 0.0 NE 7 11 4 6 1023.3 1024.6 1.4
26/08:30am 8.6 7.1 8.5 99 0.0 NE 6 9 3 5 1023.1 - 1.4
26/08:00am 7.3 6.3 7.2 99 0.0 NW 2 6 1 3 1022.8 - 1.4
26/07:30am 7.8 5.9 7.7 99 0.0 NW 7 9 4 5 1022.3 - 1.4
26/07:00am 8.6 7.1 8.5 99 0.0 WNW 6 7 3 4 1022.0 - 1.4
26/06:30am 8.9 7.3 8.8 99 0.0 WNW 7 11 4 6 1021.7 - 1.4
26/06:00am 8.9 6.9 8.8 99 0.0 WNW 9 11 5 6 1021.4 1022.7 1.4
26/05:30am 8.6 6.6 8.5 99 0.0 W 9 11 5 6 1021.0 - 1.4
26/05:00am 8.2 6.4 8.1 99 0.0 NW 7 9 4 5 1020.9 - 1.4
26/04:30am 8.4 7.3 8.3 99 0.0 NW 4 7 2 4 1020.7 - 1.4
26/04:00am 8.4 8.0 8.3 99 0.0 CALM 0 0 0 0 1020.4 - 1.4
26/03:30am 8.7 6.7 8.6 99 0.0 NNW 9 11 5 6 1020.2 - 1.4
26/03:00am 8.7 7.2 8.6 99 0.0 NW 6 7 3 4 1020.2 1021.5 1.4
26/02:30am 8.6 7.5 8.5 99 0.0 NW 4 6 2 3 1020.4 - 1.4
26/02:00am 9.0 7.4 8.9 99 0.0 NW 7 11 4 6 1020.1 - 1.4
26/01:30am 8.8 7.2 8.7 99 0.0 NNW 7 11 4 6 1020.0 - 1.4
26/01:00am 8.8 7.2 8.7 99 0.0 NNW 7 11 4 6 1020.0 - 1.4
26/12:30am 8.7 7.1 8.6 99 0.0 NW 7 9 4 5 1020.0 - 1.4
26/12:00am 8.9 6.9 8.8 99 0.0 NNW 9 13 5 7 1019.9 1021.2 1.2
 
Date/Time
EST
Temp
°C
App
Temp
°C
Dew
Point
Rel
Hum
%
Delta-T
°C
Wind Press
QNH
hPa
Press
MSL
hPa
Rain
since 9 am
mm
Dir
 
Spd
km/h
Gust
km/h
Spd
kts
Gust
kts
25/11:30pm 8.8 7.2 8.7 99 0.0 NW 7 9 4 5 1019.9 - 1.2
25/11:00pm 8.5 6.4 8.4 99 0.0 NW 9 13 5 7 1019.7 - 1.2
25/10:30pm 8.5 6.8 8.4 99 0.0 NW 7 9 4 5 1019.5 - 1.2
25/10:00pm 9.0 7.4 8.9 99 0.0 NW 7 11 4 6 1019.3 - 1.2
25/09:30pm 9.3 6.7 9.2 99 0.0 NNW 13 15 7 8 1019.1 - 1.2
25/09:00pm 9.0 7.6 8.9 99 0.0 NNW 6 9 3 5 1018.9 1020.2 1.2
25/08:30pm 9.1 7.6 9.0 99 0.0 ENE 7 9 4 5 1018.7 - 1.2
25/08:00pm 9.3 8.8 9.2 99 0.0 N 2 6 1 3 1018.5 - 1.2
25/07:30pm 9.4 7.9 9.3 99 0.1 NE 7 9 4 5 1018.1 - 1.2
25/07:00pm 9.1 7.7 9.0 99 0.0 ENE 6 7 3 4 1017.6 - 1.2
25/06:30pm 9.4 8.9 9.3 99 0.1 NNE 2 6 1 3 1017.3 - 1.2

Other Formats:

Comma delimited format used in spreadsheet applications
http://www.bom.gov.au/fwo/IDV60801/IDV60801.94836.axf

JavaScript Object Notation format (JSON) in row-major order
http://www.bom.gov.au/fwo/IDV60801/IDV60801.94836.json